sensor_id;sensor_type;location;lat;lon;timestamp;P1;durP1;ratioP1;P2;durP2;ratioP2
13485;SDS011;6815;59.336;17.998;2022-10-30T00:00:28;1.40;;;0.80;;
13485;SDS011;6815;59.336;17.998;2022-10-30T00:02:54;1.67;;;0.70;;
13485;SDS011;6815;59.336;17.998;2022-10-30T00:05:19;1.83;;;0.70;;
13485;SDS011;6815;59.336;17.998;2022-10-30T00:07:45;4.40;;;0.80;;
13485;SDS011;6815;59.336;17.998;2022-10-30T00:10:11;1.63;;;0.50;;
13485;SDS011;6815;59.336;17.998;2022-10-30T00:12:37;2.43;;;1.00;;
13485;SDS011;6815;59.336;17.998;2022-10-30T00:15:03;1.90;;;0.87;;
13485;SDS011;6815;59.336;17.998;2022-10-30T00:17:29;1.47;;;0.67;;
13485;SDS011;6815;59.336;17.998;2022-10-30T00:19:55;1.07;;;0.70;;
13485;SDS011;6815;59.336;17.998;2022-10-30T00:22:20;1.20;;;0.70;;
13485;SDS011;6815;59.336;17.998;2022-10-30T00:24:46;1.90;;;0.57;;
13485;SDS011;6815;59.336;17.998;2022-10-30T00:27:11;1.37;;;0.60;;
13485;SDS011;6815;59.336;17.998;2022-10-30T00:29:37;1.50;;;0.67;;
13485;SDS011;6815;59.336;17.998;2022-10-30T00:32:02;0.80;;;0.60;;
13485;SDS011;6815;59.336;17.998;2022-10-30T00:34:28;2.10;;;0.73;;
13485;SDS011;6815;59.336;17.998;2022-10-30T00:36:53;2.07;;;0.80;;
13485;SDS011;6815;59.336;17.998;2022-10-30T00:39:18;1.17;;;0.80;;
13485;SDS011;6815;59.336;17.998;2022-10-30T00:41:44;2.07;;;0.87;;
13485;SDS011;6815;59.336;17.998;2022-10-30T00:47:04;1.97;;;0.80;;
13485;SDS011;6815;59.336;17.998;2022-10-30T00:49:34;1.77;;;0.80;;
13485;SDS011;6815;59.336;17.998;2022-10-30T00:52:04;1.43;;;0.70;;
13485;SDS011;6815;59.336;17.998;2022-10-30T00:54:33;1.17;;;0.70;;
13485;SDS011;6815;59.336;17.998;2022-10-30T00:57:01;1.80;;;0.83;;
13485;SDS011;6815;59.336;17.998;2022-10-30T00:59:31;1.47;;;0.60;;
13485;SDS011;6815;59.336;17.998;2022-10-30T01:02:00;1.23;;;0.80;;
13485;SDS011;6815;59.336;17.998;2022-10-30T01:04:28;0.80;;;0.70;;
13485;SDS011;6815;59.336;17.998;2022-10-30T01:06:56;2.00;;;1.00;;
13485;SDS011;6815;59.336;17.998;2022-10-30T01:09:24;4.63;;;0.93;;
13485;SDS011;6815;59.336;17.998;2022-10-30T01:11:49;1.53;;;0.70;;
13485;SDS011;6815;59.336;17.998;2022-10-30T01:14:15;2.03;;;1.03;;
13485;SDS011;6815;59.336;17.998;2022-10-30T01:21:43;3.00;;;0.93;;
13485;SDS011;6815;59.336;17.998;2022-10-30T01:24:27;1.67;;;0.97;;
13485;SDS011;6815;59.336;17.998;2022-10-30T01:29:57;1.90;;;1.07;;
13485;SDS011;6815;59.336;17.998;2022-10-30T01:36:20;1.90;;;0.97;;
13485;SDS011;6815;59.336;17.998;2022-10-30T01:40:42;2.90;;;1.10;;
13485;SDS011;6815;59.336;17.998;2022-10-30T01:43:09;2.73;;;1.00;;
13485;SDS011;6815;59.336;17.998;2022-10-30T01:48:36;1.17;;;0.80;;
13485;SDS011;6815;59.336;17.998;2022-10-30T01:51:32;1.23;;;0.93;;
13485;SDS011;6815;59.336;17.998;2022-10-30T02:01:45;1.80;;;0.90;;
13485;SDS011;6815;59.336;17.998;2022-10-30T02:04:11;2.90;;;0.87;;
13485;SDS011;6815;59.336;17.998;2022-10-30T02:06:38;2.03;;;1.00;;
13485;SDS011;6815;59.336;17.998;2022-10-30T02:09:04;2.10;;;0.97;;
13485;SDS011;6815;59.336;17.998;2022-10-30T02:11:31;1.93;;;1.00;;
13485;SDS011;6815;59.336;17.998;2022-10-30T02:13:59;0.97;;;0.70;;
13485;SDS011;6815;59.336;17.998;2022-10-30T02:16:27;1.50;;;0.97;;
13485;SDS011;6815;59.336;17.998;2022-10-30T02:18:52;1.87;;;0.83;;
13485;SDS011;6815;59.336;17.998;2022-10-30T02:21:18;2.30;;;0.73;;
13485;SDS011;6815;59.336;17.998;2022-10-30T02:23:44;3.03;;;0.70;;
13485;SDS011;6815;59.336;17.998;2022-10-30T02:26:09;2.27;;;0.73;;
13485;SDS011;6815;59.336;17.998;2022-10-30T02:28:35;3.03;;;0.90;;
13485;SDS011;6815;59.336;17.998;2022-10-30T02:31:00;2.20;;;0.77;;
13485;SDS011;6815;59.336;17.998;2022-10-30T02:33:26;1.63;;;0.80;;
13485;SDS011;6815;59.336;17.998;2022-10-30T02:35:51;2.00;;;0.90;;
13485;SDS011;6815;59.336;17.998;2022-10-30T02:38:17;1.63;;;0.80;;
13485;SDS011;6815;59.336;17.998;2022-10-30T02:40:42;1.27;;;0.80;;
13485;SDS011;6815;59.336;17.998;2022-10-30T02:43:08;3.33;;;0.83;;
13485;SDS011;6815;59.336;17.998;2022-10-30T02:45:33;2.40;;;0.70;;
13485;SDS011;6815;59.336;17.998;2022-10-30T02:47:59;2.33;;;0.80;;
13485;SDS011;6815;59.336;17.998;2022-10-30T02:50:25;1.10;;;0.70;;
13485;SDS011;6815;59.336;17.998;2022-10-30T02:52:50;1.80;;;0.80;;
13485;SDS011;6815;59.336;17.998;2022-10-30T02:55:17;2.87;;;0.70;;
13485;SDS011;6815;59.336;17.998;2022-10-30T02:57:43;2.90;;;0.83;;
13485;SDS011;6815;59.336;17.998;2022-10-30T03:00:09;3.07;;;1.00;;
13485;SDS011;6815;59.336;17.998;2022-10-30T03:02:35;0.93;;;0.70;;
13485;SDS011;6815;59.336;17.998;2022-10-30T03:05:01;2.67;;;0.90;;
13485;SDS011;6815;59.336;17.998;2022-10-30T03:07:26;2.97;;;0.73;;
13485;SDS011;6815;59.336;17.998;2022-10-30T03:09:52;3.57;;;0.73;;
13485;SDS011;6815;59.336;17.998;2022-10-30T03:12:19;0.97;;;0.60;;
13485;SDS011;6815;59.336;17.998;2022-10-30T03:14:44;1.43;;;0.70;;
13485;SDS011;6815;59.336;17.998;2022-10-30T03:17:10;1.43;;;0.80;;
13485;SDS011;6815;59.336;17.998;2022-10-30T03:19:35;1.80;;;0.80;;
13485;SDS011;6815;59.336;17.998;2022-10-30T03:22:00;0.90;;;0.80;;
13485;SDS011;6815;59.336;17.998;2022-10-30T03:24:26;1.40;;;0.77;;
13485;SDS011;6815;59.336;17.998;2022-10-30T03:26:52;2.30;;;0.90;;
13485;SDS011;6815;59.336;17.998;2022-10-30T03:29:17;2.83;;;0.70;;
13485;SDS011;6815;59.336;17.998;2022-10-30T03:31:42;0.50;;;0.50;;
13485;SDS011;6815;59.336;17.998;2022-10-30T03:34:08;2.07;;;0.80;;
13485;SDS011;6815;59.336;17.998;2022-10-30T03:36:33;2.33;;;0.73;;
13485;SDS011;6815;59.336;17.998;2022-10-30T03:38:59;1.80;;;0.77;;
13485;SDS011;6815;59.336;17.998;2022-10-30T03:41:24;3.40;;;1.00;;
13485;SDS011;6815;59.336;17.998;2022-10-30T03:43:50;1.10;;;0.67;;
13485;SDS011;6815;59.336;17.998;2022-10-30T03:46:15;1.80;;;0.70;;
13485;SDS011;6815;59.336;17.998;2022-10-30T03:48:41;3.30;;;0.77;;
13485;SDS011;6815;59.336;17.998;2022-10-30T03:51:06;1.90;;;0.60;;
13485;SDS011;6815;59.336;17.998;2022-10-30T03:53:32;2.50;;;0.70;;
13485;SDS011;6815;59.336;17.998;2022-10-30T03:55:58;0.67;;;0.67;;
13485;SDS011;6815;59.336;17.998;2022-10-30T03:58:26;2.50;;;0.87;;
13485;SDS011;6815;59.336;17.998;2022-10-30T04:00:52;1.27;;;0.50;;
13485;SDS011;6815;59.336;17.998;2022-10-30T04:03:18;1.13;;;0.70;;
13485;SDS011;6815;59.336;17.998;2022-10-30T04:05:43;2.20;;;0.80;;
13485;SDS011;6815;59.336;17.998;2022-10-30T04:08:10;2.10;;;0.77;;
13485;SDS011;6815;59.336;17.998;2022-10-30T04:10:40;1.90;;;0.67;;
13485;SDS011;6815;59.336;17.998;2022-10-30T04:13:10;1.17;;;0.70;;
13485;SDS011;6815;59.336;17.998;2022-10-30T04:15:36;1.07;;;0.87;;
13485;SDS011;6815;59.336;17.998;2022-10-30T04:18:02;2.97;;;0.70;;
13485;SDS011;6815;59.336;17.998;2022-10-30T04:20:28;0.90;;;0.60;;
13485;SDS011;6815;59.336;17.998;2022-10-30T04:22:54;1.10;;;1.00;;
13485;SDS011;6815;59.336;17.998;2022-10-30T04:25:21;1.17;;;0.60;;
13485;SDS011;6815;59.336;17.998;2022-10-30T04:27:46;0.90;;;0.70;;
13485;SDS011;6815;59.336;17.998;2022-10-30T04:30:13;2.17;;;0.70;;
13485;SDS011;6815;59.336;17.998;2022-10-30T04:32:48;0.67;;;0.60;;
13485;SDS011;6815;59.336;17.998;2022-10-30T04:35:24;1.37;;;0.60;;
13485;SDS011;6815;59.336;17.998;2022-10-30T04:37:56;2.17;;;0.90;;
13485;SDS011;6815;59.336;17.998;2022-10-30T04:40:23;1.77;;;0.83;;
13485;SDS011;6815;59.336;17.998;2022-10-30T04:42:50;1.40;;;0.70;;
13485;SDS011;6815;59.336;17.998;2022-10-30T04:45:16;1.80;;;0.90;;
13485;SDS011;6815;59.336;17.998;2022-10-30T04:47:42;1.80;;;0.77;;
13485;SDS011;6815;59.336;17.998;2022-10-30T04:50:08;1.17;;;0.77;;
13485;SDS011;6815;59.336;17.998;2022-10-30T04:52:34;0.80;;;0.60;;
13485;SDS011;6815;59.336;17.998;2022-10-30T04:55:00;3.20;;;0.70;;
13485;SDS011;6815;59.336;17.998;2022-10-30T04:57:26;1.83;;;0.90;;
13485;SDS011;6815;59.336;17.998;2022-10-30T04:59:51;1.47;;;0.80;;
13485;SDS011;6815;59.336;17.998;2022-10-30T05:02:17;2.33;;;0.80;;
13485;SDS011;6815;59.336;17.998;2022-10-30T05:04:45;2.00;;;0.90;;
13485;SDS011;6815;59.336;17.998;2022-10-30T05:07:11;3.20;;;0.93;;
13485;SDS011;6815;59.336;17.998;2022-10-30T05:09:37;2.70;;;0.70;;
13485;SDS011;6815;59.336;17.998;2022-10-30T05:12:03;0.93;;;0.60;;
13485;SDS011;6815;59.336;17.998;2022-10-30T05:14:29;1.70;;;0.60;;
13485;SDS011;6815;59.336;17.998;2022-10-30T05:16:56;1.40;;;0.83;;
13485;SDS011;6815;59.336;17.998;2022-10-30T05:19:21;1.13;;;0.93;;
13485;SDS011;6815;59.336;17.998;2022-10-30T05:21:47;2.03;;;0.90;;
13485;SDS011;6815;59.336;17.998;2022-10-30T05:24:12;2.30;;;0.60;;
13485;SDS011;6815;59.336;17.998;2022-10-30T05:26:37;1.93;;;1.10;;
13485;SDS011;6815;59.336;17.998;2022-10-30T05:29:03;1.00;;;0.80;;
13485;SDS011;6815;59.336;17.998;2022-10-30T05:31:28;1.37;;;0.80;;
13485;SDS011;6815;59.336;17.998;2022-10-30T05:33:54;2.40;;;0.80;;
13485;SDS011;6815;59.336;17.998;2022-10-30T05:36:19;1.97;;;0.80;;
13485;SDS011;6815;59.336;17.998;2022-10-30T05:38:44;3.00;;;0.80;;
13485;SDS011;6815;59.336;17.998;2022-10-30T05:41:10;6.80;;;1.20;;
13485;SDS011;6815;59.336;17.998;2022-10-30T05:43:36;1.87;;;0.97;;
13485;SDS011;6815;59.336;17.998;2022-10-30T05:46:01;2.37;;;0.90;;
13485;SDS011;6815;59.336;17.998;2022-10-30T05:48:27;2.10;;;0.70;;
13485;SDS011;6815;59.336;17.998;2022-10-30T05:50:54;1.90;;;0.60;;
13485;SDS011;6815;59.336;17.998;2022-10-30T05:53:20;1.60;;;0.60;;
13485;SDS011;6815;59.336;17.998;2022-10-30T05:55:46;1.33;;;0.70;;
13485;SDS011;6815;59.336;17.998;2022-10-30T05:58:12;3.67;;;0.87;;
13485;SDS011;6815;59.336;17.998;2022-10-30T06:00:37;1.10;;;0.80;;
13485;SDS011;6815;59.336;17.998;2022-10-30T06:03:05;3.10;;;0.70;;
13485;SDS011;6815;59.336;17.998;2022-10-30T06:05:32;2.33;;;0.80;;
13485;SDS011;6815;59.336;17.998;2022-10-30T06:07:59;2.10;;;0.90;;
13485;SDS011;6815;59.336;17.998;2022-10-30T06:10:25;2.03;;;0.70;;
13485;SDS011;6815;59.336;17.998;2022-10-30T06:12:55;3.47;;;0.70;;
13485;SDS011;6815;59.336;17.998;2022-10-30T06:15:22;1.60;;;0.90;;
13485;SDS011;6815;59.336;17.998;2022-10-30T06:17:48;2.33;;;1.00;;
13485;SDS011;6815;59.336;17.998;2022-10-30T06:20:14;0.97;;;0.77;;
13485;SDS011;6815;59.336;17.998;2022-10-30T06:22:40;2.47;;;0.70;;
13485;SDS011;6815;59.336;17.998;2022-10-30T06:25:06;1.30;;;0.70;;
13485;SDS011;6815;59.336;17.998;2022-10-30T06:27:34;0.80;;;0.70;;
13485;SDS011;6815;59.336;17.998;2022-10-30T06:30:00;2.47;;;0.87;;
13485;SDS011;6815;59.336;17.998;2022-10-30T06:32:25;3.40;;;0.80;;
13485;SDS011;6815;59.336;17.998;2022-10-30T06:34:51;1.23;;;0.73;;
13485;SDS011;6815;59.336;17.998;2022-10-30T06:37:16;3.83;;;0.90;;
13485;SDS011;6815;59.336;17.998;2022-10-30T06:39:42;1.50;;;0.70;;
13485;SDS011;6815;59.336;17.998;2022-10-30T06:42:07;1.70;;;0.77;;
13485;SDS011;6815;59.336;17.998;2022-10-30T06:44:33;0.80;;;0.60;;
13485;SDS011;6815;59.336;17.998;2022-10-30T06:46:58;1.43;;;0.70;;
13485;SDS011;6815;59.336;17.998;2022-10-30T06:49:24;1.63;;;1.10;;
13485;SDS011;6815;59.336;17.998;2022-10-30T06:51:49;1.27;;;0.87;;
13485;SDS011;6815;59.336;17.998;2022-10-30T06:54:15;2.80;;;0.90;;
13485;SDS011;6815;59.336;17.998;2022-10-30T06:56:40;2.30;;;0.80;;
13485;SDS011;6815;59.336;17.998;2022-10-30T06:59:06;2.30;;;0.70;;
13485;SDS011;6815;59.336;17.998;2022-10-30T07:01:32;1.30;;;0.70;;
13485;SDS011;6815;59.336;17.998;2022-10-30T07:03:57;2.20;;;1.00;;
13485;SDS011;6815;59.336;17.998;2022-10-30T07:06:24;3.37;;;0.90;;
13485;SDS011;6815;59.336;17.998;2022-10-30T07:08:49;1.93;;;1.00;;
13485;SDS011;6815;59.336;17.998;2022-10-30T07:11:14;0.80;;;0.70;;
13485;SDS011;6815;59.336;17.998;2022-10-30T07:13:40;1.80;;;0.83;;
13485;SDS011;6815;59.336;17.998;2022-10-30T07:16:06;2.30;;;0.80;;
13485;SDS011;6815;59.336;17.998;2022-10-30T07:18:31;1.17;;;0.77;;
13485;SDS011;6815;59.336;17.998;2022-10-30T07:20:57;0.93;;;0.70;;
13485;SDS011;6815;59.336;17.998;2022-10-30T07:23:23;1.33;;;0.90;;
13485;SDS011;6815;59.336;17.998;2022-10-30T07:25:50;1.20;;;0.80;;
13485;SDS011;6815;59.336;17.998;2022-10-30T07:28:16;3.57;;;0.90;;
13485;SDS011;6815;59.336;17.998;2022-10-30T07:30:42;0.80;;;0.67;;
13485;SDS011;6815;59.336;17.998;2022-10-30T07:33:10;1.13;;;0.70;;
13485;SDS011;6815;59.336;17.998;2022-10-30T07:35:36;1.47;;;1.00;;
13485;SDS011;6815;59.336;17.998;2022-10-30T07:38:05;1.83;;;1.00;;
13485;SDS011;6815;59.336;17.998;2022-10-30T07:40:33;2.13;;;0.77;;
13485;SDS011;6815;59.336;17.998;2022-10-30T07:42:59;1.50;;;0.93;;
13485;SDS011;6815;59.336;17.998;2022-10-30T07:45:26;1.73;;;0.90;;
13485;SDS011;6815;59.336;17.998;2022-10-30T07:47:52;1.20;;;1.00;;
13485;SDS011;6815;59.336;17.998;2022-10-30T07:50:18;3.10;;;1.10;;
13485;SDS011;6815;59.336;17.998;2022-10-30T07:52:44;2.03;;;0.90;;
13485;SDS011;6815;59.336;17.998;2022-10-30T07:55:10;1.07;;;0.87;;
13485;SDS011;6815;59.336;17.998;2022-10-30T07:57:38;2.53;;;1.17;;
13485;SDS011;6815;59.336;17.998;2022-10-30T08:00:11;2.33;;;0.80;;
13485;SDS011;6815;59.336;17.998;2022-10-30T08:02:38;1.50;;;0.80;;
13485;SDS011;6815;59.336;17.998;2022-10-30T08:05:03;6.07;;;1.13;;
13485;SDS011;6815;59.336;17.998;2022-10-30T08:07:34;2.50;;;0.97;;
13485;SDS011;6815;59.336;17.998;2022-10-30T08:10:00;0.93;;;0.83;;
13485;SDS011;6815;59.336;17.998;2022-10-30T08:12:27;2.77;;;0.87;;
13485;SDS011;6815;59.336;17.998;2022-10-30T08:14:52;0.90;;;0.80;;
13485;SDS011;6815;59.336;17.998;2022-10-30T08:17:19;0.80;;;0.70;;
13485;SDS011;6815;59.336;17.998;2022-10-30T08:19:45;2.77;;;1.30;;
13485;SDS011;6815;59.336;17.998;2022-10-30T08:22:10;1.50;;;0.90;;
13485;SDS011;6815;59.336;17.998;2022-10-30T08:24:36;1.00;;;0.67;;
13485;SDS011;6815;59.336;17.998;2022-10-30T08:27:02;4.77;;;0.83;;
13485;SDS011;6815;59.336;17.998;2022-10-30T08:29:28;0.80;;;0.70;;
13485;SDS011;6815;59.336;17.998;2022-10-30T08:31:53;1.10;;;0.80;;
13485;SDS011;6815;59.336;17.998;2022-10-30T08:34:19;1.57;;;0.80;;
13485;SDS011;6815;59.336;17.998;2022-10-30T08:36:46;1.33;;;0.83;;
13485;SDS011;6815;59.336;17.998;2022-10-30T08:39:13;1.43;;;0.70;;
13485;SDS011;6815;59.336;17.998;2022-10-30T08:41:38;1.17;;;0.80;;
13485;SDS011;6815;59.336;17.998;2022-10-30T08:44:04;2.20;;;0.70;;
13485;SDS011;6815;59.336;17.998;2022-10-30T08:46:29;2.73;;;0.80;;
13485;SDS011;6815;59.336;17.998;2022-10-30T08:48:54;1.90;;;0.90;;
13485;SDS011;6815;59.336;17.998;2022-10-30T08:51:20;2.70;;;0.80;;
13485;SDS011;6815;59.336;17.998;2022-10-30T08:53:48;1.50;;;0.70;;
13485;SDS011;6815;59.336;17.998;2022-10-30T08:56:14;1.70;;;1.00;;
13485;SDS011;6815;59.336;17.998;2022-10-30T08:58:40;3.53;;;0.80;;
13485;SDS011;6815;59.336;17.998;2022-10-30T09:01:06;2.33;;;0.90;;
13485;SDS011;6815;59.336;17.998;2022-10-30T09:03:31;1.20;;;0.80;;
13485;SDS011;6815;59.336;17.998;2022-10-30T09:05:57;1.20;;;0.70;;
13485;SDS011;6815;59.336;17.998;2022-10-30T09:08:23;3.97;;;0.90;;
13485;SDS011;6815;59.336;17.998;2022-10-30T09:10:56;1.40;;;0.70;;
13485;SDS011;6815;59.336;17.998;2022-10-30T09:13:23;3.47;;;0.80;;
13485;SDS011;6815;59.336;17.998;2022-10-30T09:15:49;2.57;;;0.90;;
13485;SDS011;6815;59.336;17.998;2022-10-30T09:18:14;3.10;;;0.80;;
13485;SDS011;6815;59.336;17.998;2022-10-30T09:20:40;2.03;;;0.70;;
13485;SDS011;6815;59.336;17.998;2022-10-30T09:23:05;2.67;;;1.00;;
13485;SDS011;6815;59.336;17.998;2022-10-30T09:25:31;2.43;;;0.70;;
13485;SDS011;6815;59.336;17.998;2022-10-30T09:27:56;1.20;;;0.80;;
13485;SDS011;6815;59.336;17.998;2022-10-30T09:30:22;1.20;;;0.73;;
13485;SDS011;6815;59.336;17.998;2022-10-30T09:32:58;4.90;;;0.70;;
13485;SDS011;6815;59.336;17.998;2022-10-30T09:35:25;1.67;;;0.87;;
13485;SDS011;6815;59.336;17.998;2022-10-30T09:37:51;0.80;;;0.60;;
13485;SDS011;6815;59.336;17.998;2022-10-30T09:54:57;1.73;;;0.70;;
13485;SDS011;6815;59.336;17.998;2022-10-30T10:00:12;0.73;;;0.50;;
13485;SDS011;6815;59.336;17.998;2022-10-30T10:07:57;1.00;;;0.53;;
13485;SDS011;6815;59.336;17.998;2022-10-30T10:10:37;1.57;;;0.80;;
13485;SDS011;6815;59.336;17.998;2022-10-30T10:13:05;1.67;;;0.90;;
13485;SDS011;6815;59.336;17.998;2022-10-30T10:15:41;2.70;;;0.90;;
13485;SDS011;6815;59.336;17.998;2022-10-30T10:18:16;2.83;;;0.67;;
13485;SDS011;6815;59.336;17.998;2022-10-30T10:20:46;0.70;;;0.57;;
13485;SDS011;6815;59.336;17.998;2022-10-30T10:23:18;2.33;;;0.70;;
13485;SDS011;6815;59.336;17.998;2022-10-30T10:25:51;0.87;;;0.60;;
13485;SDS011;6815;59.336;17.998;2022-10-30T10:34:05;2.60;;;0.70;;
13485;SDS011;6815;59.336;17.998;2022-10-30T10:39:45;1.17;;;0.60;;
13485;SDS011;6815;59.336;17.998;2022-10-30T10:45:15;1.53;;;0.67;;
13485;SDS011;6815;59.336;17.998;2022-10-30T10:50:29;3.13;;;0.83;;
13485;SDS011;6815;59.336;17.998;2022-10-30T10:53:13;1.87;;;0.80;;
13485;SDS011;6815;59.336;17.998;2022-10-30T10:56:01;0.93;;;0.60;;
13485;SDS011;6815;59.336;17.998;2022-10-30T10:58:28;0.37;;;0.37;;
13485;SDS011;6815;59.336;17.998;2022-10-30T11:00:56;1.20;;;0.80;;
13485;SDS011;6815;59.336;17.998;2022-10-30T11:06:18;0.73;;;0.60;;
13485;SDS011;6815;59.336;17.998;2022-10-30T11:08:46;1.70;;;0.50;;
13485;SDS011;6815;59.336;17.998;2022-10-30T11:11:14;1.10;;;0.70;;
13485;SDS011;6815;59.336;17.998;2022-10-30T11:13:40;4.47;;;1.30;;
13485;SDS011;6815;59.336;17.998;2022-10-30T11:18:51;1.83;;;0.90;;
13485;SDS011;6815;59.336;17.998;2022-10-30T11:21:29;1.20;;;0.80;;
13485;SDS011;6815;59.336;17.998;2022-10-30T11:23:58;3.40;;;0.80;;
13485;SDS011;6815;59.336;17.998;2022-10-30T11:26:25;2.00;;;1.07;;
13485;SDS011;6815;59.336;17.998;2022-10-30T11:31:44;1.13;;;0.70;;
13485;SDS011;6815;59.336;17.998;2022-10-30T11:36:41;2.10;;;0.60;;
13485;SDS011;6815;59.336;17.998;2022-10-30T11:39:26;3.03;;;0.90;;
13485;SDS011;6815;59.336;17.998;2022-10-30T11:42:00;1.43;;;0.70;;
13485;SDS011;6815;59.336;17.998;2022-10-30T11:44:35;1.87;;;0.63;;
13485;SDS011;6815;59.336;17.998;2022-10-30T11:47:02;0.93;;;0.60;;
13485;SDS011;6815;59.336;17.998;2022-10-30T11:51:59;2.27;;;0.70;;
13485;SDS011;6815;59.336;17.998;2022-10-30T11:54:25;1.90;;;0.67;;
13485;SDS011;6815;59.336;17.998;2022-10-30T11:56:52;2.90;;;0.77;;
13485;SDS011;6815;59.336;17.998;2022-10-30T11:59:20;0.50;;;0.50;;
13485;SDS011;6815;59.336;17.998;2022-10-30T12:01:57;0.70;;;0.60;;
13485;SDS011;6815;59.336;17.998;2022-10-30T12:04:23;1.27;;;0.60;;
13485;SDS011;6815;59.336;17.998;2022-10-30T12:07:05;0.50;;;0.50;;
13485;SDS011;6815;59.336;17.998;2022-10-30T12:09:35;0.87;;;0.67;;
13485;SDS011;6815;59.336;17.998;2022-10-30T12:12:10;0.50;;;0.50;;
13485;SDS011;6815;59.336;17.998;2022-10-30T12:14:43;1.03;;;0.60;;
13485;SDS011;6815;59.336;17.998;2022-10-30T12:17:08;0.80;;;0.50;;
13485;SDS011;6815;59.336;17.998;2022-10-30T12:19:42;0.73;;;0.50;;
13485;SDS011;6815;59.336;17.998;2022-10-30T12:22:11;1.17;;;0.60;;
13485;SDS011;6815;59.336;17.998;2022-10-30T12:24:48;1.00;;;0.70;;
13485;SDS011;6815;59.336;17.998;2022-10-30T12:27:15;1.77;;;0.60;;
13485;SDS011;6815;59.336;17.998;2022-10-30T12:32:42;0.73;;;0.50;;
13485;SDS011;6815;59.336;17.998;2022-10-30T12:35:15;1.77;;;0.80;;
13485;SDS011;6815;59.336;17.998;2022-10-30T12:37:49;0.90;;;0.50;;
13485;SDS011;6815;59.336;17.998;2022-10-30T12:40:20;1.30;;;0.80;;
13485;SDS011;6815;59.336;17.998;2022-10-30T12:50:54;2.53;;;0.60;;
13485;SDS011;6815;59.336;17.998;2022-10-30T12:53:48;1.30;;;0.73;;
13485;SDS011;6815;59.336;17.998;2022-10-30T12:56:21;3.20;;;1.03;;
13485;SDS011;6815;59.336;17.998;2022-10-30T13:01:32;1.60;;;0.87;;
13485;SDS011;6815;59.336;17.998;2022-10-30T13:04:09;1.93;;;0.60;;
13485;SDS011;6815;59.336;17.998;2022-10-30T13:06:41;0.93;;;0.50;;
13485;SDS011;6815;59.336;17.998;2022-10-30T13:09:26;0.90;;;0.70;;
13485;SDS011;6815;59.336;17.998;2022-10-30T13:12:03;2.67;;;1.10;;
13485;SDS011;6815;59.336;17.998;2022-10-30T13:14:35;1.17;;;0.60;;
13485;SDS011;6815;59.336;17.998;2022-10-30T13:17:12;2.43;;;0.70;;
13485;SDS011;6815;59.336;17.998;2022-10-30T13:19:43;1.30;;;0.80;;
13485;SDS011;6815;59.336;17.998;2022-10-30T13:22:21;2.17;;;1.00;;
13485;SDS011;6815;59.336;17.998;2022-10-30T13:25:00;2.27;;;0.80;;
13485;SDS011;6815;59.336;17.998;2022-10-30T13:27:34;1.77;;;0.63;;
13485;SDS011;6815;59.336;17.998;2022-10-30T13:41:05;2.47;;;1.00;;
13485;SDS011;6815;59.336;17.998;2022-10-30T13:43:47;5.10;;;1.30;;
13485;SDS011;6815;59.336;17.998;2022-10-30T13:52:03;1.83;;;0.60;;
13485;SDS011;6815;59.336;17.998;2022-10-30T13:54:36;1.23;;;0.70;;
13485;SDS011;6815;59.336;17.998;2022-10-30T13:57:11;1.00;;;0.60;;
13485;SDS011;6815;59.336;17.998;2022-10-30T14:02:55;0.73;;;0.60;;
13485;SDS011;6815;59.336;17.998;2022-10-30T14:10:54;0.90;;;0.70;;
13485;SDS011;6815;59.336;17.998;2022-10-30T14:13:23;2.60;;;0.80;;
13485;SDS011;6815;59.336;17.998;2022-10-30T14:18:29;1.80;;;0.77;;
13485;SDS011;6815;59.336;17.998;2022-10-30T14:20:56;1.83;;;0.60;;
13485;SDS011;6815;59.336;17.998;2022-10-30T14:28:27;1.20;;;0.80;;
13485;SDS011;6815;59.336;17.998;2022-10-30T14:31:00;1.67;;;0.80;;
13485;SDS011;6815;59.336;17.998;2022-10-30T14:44:37;2.87;;;0.80;;
13485;SDS011;6815;59.336;17.998;2022-10-30T14:52:19;0.67;;;0.60;;
13485;SDS011;6815;59.336;17.998;2022-10-30T14:55:04;2.57;;;1.17;;
13485;SDS011;6815;59.336;17.998;2022-10-30T15:00:27;2.27;;;1.13;;
13485;SDS011;6815;59.336;17.998;2022-10-30T15:05:50;1.53;;;1.00;;
13485;SDS011;6815;59.336;17.998;2022-10-30T15:11:07;1.30;;;0.70;;
13485;SDS011;6815;59.336;17.998;2022-10-30T15:13:46;1.30;;;0.80;;
13485;SDS011;6815;59.336;17.998;2022-10-30T15:16:15;1.50;;;0.77;;
13485;SDS011;6815;59.336;17.998;2022-10-30T15:18:44;2.37;;;0.93;;
13485;SDS011;6815;59.336;17.998;2022-10-30T15:21:30;1.77;;;1.10;;
13485;SDS011;6815;59.336;17.998;2022-10-30T15:24:07;1.47;;;1.00;;
13485;SDS011;6815;59.336;17.998;2022-10-30T15:26:41;1.97;;;1.20;;
13485;SDS011;6815;59.336;17.998;2022-10-30T15:29:19;1.83;;;1.17;;
13485;SDS011;6815;59.336;17.998;2022-10-30T15:32:01;2.70;;;0.90;;
13485;SDS011;6815;59.336;17.998;2022-10-30T15:34:29;2.00;;;1.00;;
13485;SDS011;6815;59.336;17.998;2022-10-30T15:36:55;1.77;;;1.10;;
13485;SDS011;6815;59.336;17.998;2022-10-30T15:39:21;3.93;;;1.17;;
13485;SDS011;6815;59.336;17.998;2022-10-30T15:41:54;2.73;;;1.10;;
13485;SDS011;6815;59.336;17.998;2022-10-30T15:44:40;2.70;;;1.33;;
13485;SDS011;6815;59.336;17.998;2022-10-30T15:47:12;2.90;;;1.30;;
13485;SDS011;6815;59.336;17.998;2022-10-30T15:49:41;1.10;;;0.80;;
13485;SDS011;6815;59.336;17.998;2022-10-30T15:52:18;1.40;;;1.10;;
13485;SDS011;6815;59.336;17.998;2022-10-30T15:54:44;1.50;;;1.20;;
13485;SDS011;6815;59.336;17.998;2022-10-30T15:57:24;2.37;;;1.47;;
13485;SDS011;6815;59.336;17.998;2022-10-30T15:59:57;2.33;;;1.23;;
13485;SDS011;6815;59.336;17.998;2022-10-30T16:02:28;4.53;;;1.50;;
13485;SDS011;6815;59.336;17.998;2022-10-30T16:04:53;3.93;;;1.50;;
13485;SDS011;6815;59.336;17.998;2022-10-30T16:09:53;2.37;;;1.70;;
13485;SDS011;6815;59.336;17.998;2022-10-30T16:12:22;4.70;;;1.90;;
13485;SDS011;6815;59.336;17.998;2022-10-30T16:14:50;2.37;;;1.60;;
13485;SDS011;6815;59.336;17.998;2022-10-30T16:17:16;4.13;;;1.57;;
13485;SDS011;6815;59.336;17.998;2022-10-30T16:19:46;3.33;;;1.83;;
13485;SDS011;6815;59.336;17.998;2022-10-30T16:22:21;3.93;;;1.60;;
13485;SDS011;6815;59.336;17.998;2022-10-30T16:24:50;3.73;;;1.50;;
13485;SDS011;6815;59.336;17.998;2022-10-30T16:27:18;3.87;;;1.60;;
13485;SDS011;6815;59.336;17.998;2022-10-30T16:29:46;3.13;;;1.60;;
13485;SDS011;6815;59.336;17.998;2022-10-30T16:32:14;3.73;;;1.47;;
13485;SDS011;6815;59.336;17.998;2022-10-30T16:34:42;2.60;;;1.80;;
13485;SDS011;6815;59.336;17.998;2022-10-30T16:40:01;4.83;;;2.00;;
13485;SDS011;6815;59.336;17.998;2022-10-30T16:42:33;4.57;;;2.27;;
13485;SDS011;6815;59.336;17.998;2022-10-30T16:47:42;3.90;;;2.00;;
13485;SDS011;6815;59.336;17.998;2022-10-30T16:50:11;3.90;;;2.07;;
13485;SDS011;6815;59.336;17.998;2022-10-30T16:52:40;4.03;;;2.00;;
13485;SDS011;6815;59.336;17.998;2022-10-30T16:55:08;3.00;;;1.83;;
13485;SDS011;6815;59.336;17.998;2022-10-30T16:57:43;3.13;;;2.10;;
13485;SDS011;6815;59.336;17.998;2022-10-30T17:00:17;3.60;;;2.03;;
13485;SDS011;6815;59.336;17.998;2022-10-30T17:02:48;4.87;;;2.10;;
13485;SDS011;6815;59.336;17.998;2022-10-30T17:05:31;3.20;;;2.17;;
13485;SDS011;6815;59.336;17.998;2022-10-30T17:08:02;4.27;;;2.30;;
13485;SDS011;6815;59.336;17.998;2022-10-30T17:16:44;7.93;;;3.00;;
13485;SDS011;6815;59.336;17.998;2022-10-30T17:18:49;3.20;;;2.10;;
13485;SDS011;6815;59.336;17.998;2022-10-30T17:21:19;5.33;;;2.20;;
13485;SDS011;6815;59.336;17.998;2022-10-30T17:23:52;5.57;;;2.37;;
13485;SDS011;6815;59.336;17.998;2022-10-30T17:26:27;4.50;;;1.93;;
13485;SDS011;6815;59.336;17.998;2022-10-30T17:28:59;4.37;;;1.83;;
13485;SDS011;6815;59.336;17.998;2022-10-30T17:31:41;7.37;;;2.80;;
13485;SDS011;6815;59.336;17.998;2022-10-30T17:34:17;5.77;;;2.50;;
13485;SDS011;6815;59.336;17.998;2022-10-30T17:36:44;3.57;;;2.50;;
13485;SDS011;6815;59.336;17.998;2022-10-30T17:39:11;4.13;;;2.57;;